Time;durP1;ratioP1;P1;durP2;ratioP2;P2;SDS_P1;SDS_P2;PMS_P1;PMS_P2;Temp;Humidity;BMP_temperature;BMP_pressure;BME280_temperature;BME280_humidity;BME280_pressure;Samples;Min_cycle;Max_cycle;Signal;HPM_P1;HPM_P2
2021/03/22 00:01:49;;;;;;;26.48;4.63;;;5.30;90.00;;;;;;5070446;28;20048;-79
2021/03/22 00:04:14;;;;;;;14.50;5.30;;;5.40;90.10;;;;;;5070259;28;20392;-78
2021/03/22 00:06:40;;;;;;;19.25;3.03;;;5.30;90.20;;;;;;5070360;28;20045;-79
2021/03/22 00:09:07;;;;;;;21.25;4.22;;;5.40;90.40;;;;;;5070854;28;20044;-79
2021/03/22 00:11:33;;;;;;;25.27;4.30;;;5.30;90.20;;;;;;5071572;28;20141;-79
2021/03/22 00:13:59;;;;;;;11.43;3.72;;;5.40;90.40;;;;;;5060059;28;20442;-79
2021/03/22 00:16:24;;;;;;;17.73;5.20;;;5.40;90.30;;;;;;5050784;28;20130;-79
2021/03/22 00:18:51;;;;;;;29.27;5.95;;;5.40;90.40;;;;;;5051397;28;20041;-79
2021/03/22 00:21:17;;;;;;;28.80;4.68;;;5.50;90.40;;;;;;5050771;28;20044;-78
2021/03/22 00:23:43;;;;;;;31.83;5.38;;;5.40;90.60;;;;;;5033902;28;20465;-79
2021/03/22 00:26:09;;;;;;;20.15;4.72;;;5.30;90.40;;;;;;5050581;28;20037;-80
2021/03/22 00:28:38;;;;;;;15.63;3.75;;;5.40;90.50;;;;;;5054502;28;20041;-78
2021/03/22 00:31:15;;;;;;;19.23;2.97;;;5.40;90.80;;;;;;5066415;28;20048;-79
2021/03/22 00:33:41;;;;;;;19.85;4.40;;;5.40;91.00;;;;;;5061073;28;20119;-79
2021/03/22 00:36:07;;;;;;;23.85;5.05;;;5.40;90.80;;;;;;5070182;28;20051;-79
2021/03/22 00:38:34;;;;;;;37.17;5.25;;;5.50;90.50;;;;;;5070527;28;20090;-78
2021/03/22 00:41:00;;;;;;;24.38;4.53;;;5.50;90.80;;;;;;5053549;28;20783;-79
2021/03/22 00:43:26;;;;;;;20.33;3.80;;;5.40;90.80;;;;;;5067926;28;20044;-79
2021/03/22 00:45:56;;;;;;;24.67;4.93;;;5.50;90.60;;;;;;5053171;28;20045;-78
2021/03/22 00:48:23;;;;;;;28.02;7.38;;;5.50;90.60;;;;;;5070250;28;20119;-79
2021/03/22 00:50:49;;;;;;;41.40;7.78;;;5.50;91.00;;;;;;5069025;28;20037;-78
2021/03/22 00:53:16;;;;;;;22.00;5.00;;;5.50;90.90;;;;;;5052884;28;20045;-79
2021/03/22 00:55:42;;;;;;;18.05;4.75;;;5.50;90.80;;;;;;5051527;28;20062;-78
2021/03/22 00:58:08;;;;;;;21.17;3.60;;;5.50;91.00;;;;;;5052057;28;20138;-79
2021/03/22 01:01:00;;;;;;;17.48;4.50;;;5.50;90.90;;;;;;5068916;28;20049;-79
2021/03/22 01:03:32;;;;;;;19.05;4.18;;;5.50;90.60;;;;;;5070318;28;20051;-78
2021/03/22 01:05:58;;;;;;;13.95;3.28;;;5.50;90.90;;;;;;5069182;28;20050;-80
2021/03/22 01:08:26;;;;;;;19.95;3.60;;;5.50;91.20;;;;;;5070387;28;20760;-79
2021/03/22 01:10:56;;;;;;;16.25;2.55;;;5.50;90.90;;;;;;5068163;28;20040;-78
2021/03/22 01:13:28;;;;;;;24.98;4.43;;;5.50;90.80;;;;;;5063381;28;20037;-78
2021/03/22 01:15:55;;;;;;;20.02;2.97;;;5.50;90.80;;;;;;5033966;28;20037;-79
2021/03/22 01:18:25;;;;;;;20.30;3.25;;;5.50;90.80;;;;;;5056117;28;20422;-80
2021/03/22 01:21:08;;;;;;;14.43;3.45;;;5.50;90.80;;;;;;5069668;28;20044;-79
2021/03/22 01:23:34;;;;;;;20.25;3.20;;;5.50;90.80;;;;;;5050745;28;20044;-79
2021/03/22 01:26:00;;;;;;;21.45;3.58;;;5.50;90.90;;;;;;5057548;28;20145;-80
2021/03/22 01:28:26;;;;;;;25.63;4.93;;;5.50;91.20;;;;;;5033812;28;20041;-78
2021/03/22 01:31:00;;;;;;;23.52;5.28;;;5.50;91.00;;;;;;5066846;28;20041;-78
2021/03/22 01:33:30;;;;;;;20.60;5.75;;;5.50;91.00;;;;;;5047481;28;20348;-77
2021/03/22 01:36:01;;;;;;;20.67;4.60;;;5.50;91.10;;;;;;5048811;28;20037;-79
2021/03/22 01:38:28;;;;;;;14.02;4.45;;;5.50;91.30;;;;;;5049387;28;20129;-78
2021/03/22 01:41:09;;;;;;;12.70;3.22;;;5.50;91.40;;;;;;5067195;28;20338;-78
2021/03/22 01:44:22;;;;;;;16.67;4.43;;;5.50;91.10;;;;;;5066106;28;20475;-77
2021/03/22 01:46:53;;;;;;;10.95;1.60;;;5.50;91.20;;;;;;5035342;28;20062;-78
2021/03/22 01:49:21;;;;;;;12.15;2.40;;;5.40;91.00;;;;;;5051304;28;20036;-78
2021/03/22 01:51:48;;;;;;;14.25;1.98;;;5.50;91.10;;;;;;5069336;28;20044;-78
2021/03/22 01:54:15;;;;;;;14.68;2.35;;;5.50;91.20;;;;;;5069384;28;20123;-79
2021/03/22 01:56:50;;;;;;;9.40;2.05;;;5.50;91.10;;;;;;5065198;28;20051;-79
2021/03/22 01:59:23;;;;;;;14.98;2.42;;;5.50;91.30;;;;;;5052812;28;20048;-79
2021/03/22 02:01:52;;;;;;;17.88;2.53;;;5.50;91.20;;;;;;5044280;28;20127;-79
2021/03/22 02:04:19;;;;;;;19.63;3.03;;;5.50;91.20;;;;;;5048858;28;20037;-78
2021/03/22 02:06:46;;;;;;;14.35;3.08;;;5.50;91.50;;;;;;5031321;28;20055;-77
2021/03/22 02:09:12;;;;;;;18.52;3.15;;;5.40;91.50;;;;;;5048740;28;20194;-79
2021/03/22 02:11:38;;;;;;;14.80;1.83;;;5.50;91.30;;;;;;5048982;28;20040;-78
2021/03/22 02:14:07;;;;;;;13.70;1.80;;;5.50;91.60;;;;;;5041627;28;20040;-78
2021/03/22 02:16:53;;;;;;;16.52;1.88;;;5.50;91.80;;;;;;5069069;28;20077;-77
2021/03/22 02:20:18;;;;;;;8.48;1.60;;;5.50;91.70;;;;;;5028432;28;20049;-78
2021/03/22 02:23:08;;;;;;;21.13;2.20;;;5.40;91.90;;;;;;5004600;28;20057;-79
2021/03/22 02:25:46;;;;;;;12.52;1.85;;;5.40;91.70;;;;;;5064109;28;20044;-77
2021/03/22 02:28:39;;;;;;;16.48;1.83;;;5.40;91.60;;;;;;5050373;28;20049;-76
2021/03/22 02:31:33;;;;;;;16.15;2.60;;;5.40;91.60;;;;;;5056645;28;20161;-77
2021/03/22 02:34:39;;;;;;;14.43;2.00;;;5.40;91.40;;;;;;5031500;28;20040;-78
2021/03/22 02:37:39;;;;;;;13.63;1.88;;;5.40;91.60;;;;;;5036477;28;20071;-79
2021/03/22 02:40:28;;;;;;;10.85;0.95;;;5.40;91.30;;;;;;5027205;28;20114;-78
2021/03/22 02:42:55;;;;;;;9.55;0.90;;;5.40;91.50;;;;;;5065329;28;20064;-78
2021/03/22 02:45:34;;;;;;;13.27;1.83;;;5.40;91.20;;;;;;5067317;28;20044;-78
2021/03/22 02:48:01;;;;;;;10.38;0.77;;;5.50;91.20;;;;;;5069144;28;20048;-77
2021/03/22 02:50:36;;;;;;;11.48;2.35;;;5.40;91.10;;;;;;5050509;28;20747;-78
2021/03/22 02:53:27;;;;;;;10.95;1.15;;;5.40;91.00;;;;;;5065220;28;20062;-78
2021/03/22 02:56:11;;;;;;;7.95;1.38;;;5.50;91.10;;;;;;5067487;28;20040;-76
2021/03/22 02:58:59;;;;;;;11.18;1.17;;;5.40;91.30;;;;;;5067205;28;20148;-78
2021/03/22 03:01:32;;;;;;;15.63;1.73;;;5.50;91.30;;;;;;5067636;28;20040;-77
2021/03/22 03:04:00;;;;;;;13.30;2.22;;;5.40;91.40;;;;;;5069178;28;20479;-77
2021/03/22 03:06:50;;;;;;;14.20;1.20;;;5.40;91.20;;;;;;5050764;28;20052;-77
2021/03/22 03:09:19;;;;;;;9.40;0.70;;;5.50;91.10;;;;;;5048682;28;20041;-77
2021/03/22 03:11:45;;;;;;;8.57;1.52;;;5.40;90.90;;;;;;5030658;28;20048;-77
2021/03/22 03:14:11;;;;;;;10.57;1.10;;;5.40;90.80;;;;;;5047697;28;20123;-77
2021/03/22 03:16:37;;;;;;;8.30;0.70;;;5.50;91.10;;;;;;5067590;28;20378;-77
2021/03/22 03:19:04;;;;;;;8.88;0.70;;;5.40;90.80;;;;;;5030280;28;20461;-78
2021/03/22 03:21:30;;;;;;;10.77;1.30;;;5.40;90.80;;;;;;5048532;28;20040;-76
2021/03/22 03:23:55;;;;;;;10.27;0.98;;;5.40;91.00;;;;;;5045499;28;20041;-77
2021/03/22 03:26:21;;;;;;;8.90;3.03;;;5.40;90.80;;;;;;5066857;28;20049;-77
2021/03/22 03:28:47;;;;;;;12.13;1.70;;;5.40;90.70;;;;;;5064269;28;20712;-77
2021/03/22 03:31:14;;;;;;;12.30;1.77;;;5.40;90.80;;;;;;5033219;28;20045;-77
2021/03/22 03:33:40;;;;;;;5.03;1.00;;;5.40;90.70;;;;;;5056800;28;20048;-77
2021/03/22 03:36:06;;;;;;;11.23;0.95;;;5.40;90.90;;;;;;5030160;28;20041;-78
2021/03/22 03:38:31;;;;;;;13.75;1.67;;;5.40;90.80;;;;;;5030506;28;20041;-77
2021/03/22 03:40:57;;;;;;;8.07;0.70;;;5.40;90.80;;;;;;5048107;28;20555;-77
2021/03/22 03:43:23;;;;;;;8.63;0.75;;;5.40;90.90;;;;;;5032746;28;20033;-76
2021/03/22 03:45:51;;;;;;;8.27;1.63;;;5.40;90.90;;;;;;5030293;28;20098;-78
2021/03/22 03:48:21;;;;;;;6.45;0.60;;;5.40;90.70;;;;;;5052793;28;20036;-77
2021/03/22 03:50:48;;;;;;;7.75;0.77;;;5.40;90.70;;;;;;5063410;28;20033;-78
2021/03/22 03:53:14;;;;;;;10.50;1.55;;;5.40;90.70;;;;;;5067697;28;20429;-78
2021/03/22 03:55:41;;;;;;;7.13;0.77;;;5.40;90.80;;;;;;5052063;28;20051;-78
2021/03/22 03:58:07;;;;;;;5.53;0.90;;;5.40;90.70;;;;;;5029817;28;20092;-78
2021/03/22 04:00:37;;;;;;;13.70;1.27;;;5.40;90.60;;;;;;5057534;28;20126;-79
2021/03/22 04:03:36;;;;;;;11.30;0.63;;;5.40;90.60;;;;;;5049712;28;20119;-77
2021/03/22 04:06:19;;;;;;;10.02;0.68;;;5.40;90.70;;;;;;5067550;28;20356;-78
2021/03/22 04:08:52;;;;;;;12.80;2.33;;;5.40;90.60;;;;;;5059050;28;20120;-79
2021/03/22 04:11:31;;;;;;;10.57;1.27;;;5.40;90.70;;;;;;5048457;28;20037;-78
2021/03/22 04:13:57;;;;;;;10.07;0.45;;;5.50;90.80;;;;;;5036315;28;20090;-77
2021/03/22 04:16:25;;;;;;;9.07;0.40;;;5.40;90.70;;;;;;5050106;28;20079;-77
2021/03/22 04:18:51;;;;;;;4.22;0.30;;;5.40;90.60;;;;;;5050335;28;20489;-77
2021/03/22 04:21:22;;;;;;;6.45;0.63;;;5.40;90.60;;;;;;5053461;28;20037;-77
2021/03/22 04:23:49;;;;;;;6.68;0.55;;;5.40;90.50;;;;;;5069613;28;20044;-77
2021/03/22 04:26:16;;;;;;;7.50;0.30;;;5.40;90.50;;;;;;5053090;28;20109;-78
2021/03/22 04:28:42;;;;;;;8.38;2.70;;;5.40;90.40;;;;;;5070885;28;20040;-77
2021/03/22 04:31:11;;;;;;;6.35;0.57;;;5.40;90.30;;;;;;5054097;28;20060;-78
2021/03/22 04:33:37;;;;;;;12.90;1.30;;;5.40;90.50;;;;;;5058635;28;20048;-77
2021/03/22 04:36:03;;;;;;;3.17;0.40;;;5.40;90.40;;;;;;5068597;28;20383;-78
2021/03/22 04:38:29;;;;;;;3.38;1.38;;;5.40;90.40;;;;;;5070894;28;20328;-78
2021/03/22 04:40:55;;;;;;;4.53;1.13;;;5.50;90.40;;;;;;5070005;28;20040;-77
2021/03/22 04:43:21;;;;;;;8.05;1.45;;;5.40;90.40;;;;;;5044922;28;20045;-79
2021/03/22 04:45:46;;;;;;;5.40;0.47;;;5.40;90.60;;;;;;5043237;28;20044;-79
2021/03/22 04:48:13;;;;;;;7.63;1.27;;;5.50;90.70;;;;;;5070597;28;20045;-77
2021/03/22 04:50:39;;;;;;;15.43;0.68;;;5.40;91.00;;;;;;5052805;28;20045;-79
2021/03/22 04:53:05;;;;;;;14.18;1.85;;;5.30;90.90;;;;;;5052515;28;20046;-77
2021/03/22 04:55:32;;;;;;;10.38;0.50;;;5.30;90.70;;;;;;5069109;28;20081;-78
2021/03/22 04:57:58;;;;;;;10.35;1.25;;;5.30;90.50;;;;;;5070279;28;20147;-77
2021/03/22 05:00:33;;;;;;;6.85;0.65;;;5.30;90.50;;;;;;5069961;28;20182;-77
2021/03/22 05:02:59;;;;;;;9.70;0.50;;;5.30;90.60;;;;;;5070517;28;20685;-78
2021/03/22 05:05:26;;;;;;;6.43;1.25;;;5.30;90.50;;;;;;5069323;28;20485;-79
2021/03/22 05:07:52;;;;;;;6.68;1.02;;;5.30;90.40;;;;;;5070272;28;20455;-78
2021/03/22 05:10:28;;;;;;;7.70;0.55;;;5.30;90.40;;;;;;5069164;28;20048;-78
2021/03/22 05:12:54;;;;;;;6.80;0.60;;;5.30;90.30;;;;;;5048745;28;20044;-77
2021/03/22 05:15:21;;;;;;;7.10;1.08;;;5.30;90.40;;;;;;5066642;28;20040;-77
2021/03/22 05:17:47;;;;;;;3.15;0.30;;;5.30;90.40;;;;;;5050485;28;20461;-79
2021/03/22 05:20:24;;;;;;;6.82;0.80;;;5.30;90.50;;;;;;5015701;28;20144;-79
2021/03/22 05:22:50;;;;;;;11.95;1.85;;;5.30;90.60;;;;;;5052373;28;20040;-78
2021/03/22 05:25:17;;;;;;;7.93;0.63;;;5.30;90.50;;;;;;5068947;28;20036;-78
2021/03/22 05:27:43;;;;;;;13.38;2.13;;;5.30;90.30;;;;;;5052717;28;20033;-78
2021/03/22 05:30:10;;;;;;;8.88;1.45;;;5.40;90.50;;;;;;5066365;28;20067;-79
2021/03/22 05:32:37;;;;;;;9.80;1.60;;;5.30;90.60;;;;;;5067932;28;20319;-79
2021/03/22 05:35:16;;;;;;;5.03;0.35;;;5.30;90.50;;;;;;5066259;28;20070;-77
2021/03/22 05:37:42;;;;;;;12.23;1.00;;;5.30;90.30;;;;;;5070487;28;20123;-77
2021/03/22 05:40:12;;;;;;;8.48;0.80;;;5.30;90.40;;;;;;5069338;28;20425;-76
2021/03/22 05:42:50;;;;;;;2.85;0.40;;;5.30;90.50;;;;;;5067924;28;20040;-76
2021/03/22 05:45:49;;;;;;;8.93;1.27;;;5.30;90.50;;;;;;5068089;28;20430;-77
2021/03/22 05:48:50;;;;;;;8.07;1.85;;;5.30;90.50;;;;;;5070500;28;20047;-77
2021/03/22 05:51:42;;;;;;;8.35;0.65;;;5.30;90.40;;;;;;5069237;28;20422;-77
2021/03/22 05:54:43;;;;;;;8.32;0.68;;;5.40;90.40;;;;;;5068936;28;20345;-76
2021/03/22 05:57:17;;;;;;;8.35;1.20;;;5.40;90.70;;;;;;5051405;28;20051;-76
2021/03/22 06:00:13;;;;;;;7.70;1.33;;;5.40;90.40;;;;;;5068839;28;20052;-76
2021/03/22 06:02:57;;;;;;;5.78;0.30;;;5.40;90.30;;;;;;5070002;28;20089;-76
2021/03/22 06:05:32;;;;;;;6.05;0.70;;;5.40;90.10;;;;;;5057231;28;20041;-76
2021/03/22 06:08:19;;;;;;;12.07;0.90;;;5.40;89.70;;;;;;5059450;28;20033;-77
2021/03/22 06:10:50;;;;;;;2.60;0.57;;;5.40;89.40;;;;;;5063109;28;20071;-76
2021/03/22 06:13:17;;;;;;;3.20;0.40;;;5.50;89.40;;;;;;5041003;28;20437;-77
2021/03/22 06:15:55;;;;;;;10.50;0.95;;;5.50;89.40;;;;;;5046792;28;20089;-76
2021/03/22 06:18:30;;;;;;;7.28;0.63;;;5.50;89.40;;;;;;5062008;28;20045;-76
2021/03/22 06:21:00;;;;;;;7.15;0.80;;;5.50;89.50;;;;;;5063705;28;20323;-76
2021/03/22 06:23:36;;;;;;;4.25;0.30;;;5.50;89.90;;;;;;5063980;28;20457;-77
2021/03/22 06:26:18;;;;;;;2.75;0.52;;;5.60;89.50;;;;;;5067805;28;20052;-77
2021/03/22 06:28:47;;;;;;;11.75;1.75;;;5.60;89.40;;;;;;5067662;28;20527;-79
2021/03/22 06:31:16;;;;;;;10.45;1.15;;;5.70;89.70;;;;;;5056895;28;20487;-77
2021/03/22 06:33:45;;;;;;;7.28;0.60;;;5.80;89.70;;;;;;5053162;28;20033;-76
2021/03/22 06:36:15;;;;;;;7.88;0.60;;;5.90;89.80;;;;;;5056180;28;20044;-76
2021/03/22 06:38:50;;;;;;;6.88;1.63;;;6.00;89.90;;;;;;5060696;28;20040;-77
2021/03/22 06:41:29;;;;;;;4.22;0.32;;;6.00;89.60;;;;;;5064184;28;20120;-77
2021/03/22 06:43:57;;;;;;;10.15;0.68;;;6.00;89.70;;;;;;5058155;28;20047;-77
2021/03/22 06:46:24;;;;;;;9.43;1.75;;;6.00;89.70;;;;;;5048437;28;20040;-77
2021/03/22 06:49:01;;;;;;;4.07;0.52;;;6.00;89.70;;;;;;5064369;28;20037;-78
2021/03/22 06:51:35;;;;;;;6.03;0.70;;;6.00;89.60;;;;;;5047765;28;20728;-77
2021/03/22 06:54:01;;;;;;;4.63;0.98;;;5.90;89.60;;;;;;5062482;28;20047;-78
2021/03/22 06:56:37;;;;;;;4.65;0.40;;;5.90;89.70;;;;;;5044852;28;20047;-77
2021/03/22 06:59:17;;;;;;;5.53;0.63;;;5.90;89.70;;;;;;5064593;28;20147;-76
2021/03/22 07:01:45;;;;;;;5.22;0.52;;;5.90;89.60;;;;;;5046181;28;20585;-77
2021/03/22 07:04:14;;;;;;;5.93;0.50;;;5.90;89.60;;;;;;5066065;28;20059;-77
2021/03/22 07:06:39;;;;;;;4.97;1.33;;;5.90;89.70;;;;;;5066764;28;20045;-76
2021/03/22 07:09:05;;;;;;;3.42;0.28;;;5.90;89.50;;;;;;5043270;28;20760;-77
2021/03/22 07:11:32;;;;;;;5.65;1.15;;;5.90;89.70;;;;;;5057926;28;20040;-79
2021/03/22 07:14:06;;;;;;;10.52;0.98;;;5.90;89.50;;;;;;5053007;28;20124;-77
2021/03/22 07:16:33;;;;;;;7.65;0.50;;;5.90;89.70;;;;;;5063791;28;20620;-76
2021/03/22 07:19:20;;;;;;;8.05;0.93;;;5.90;89.80;;;;;;5059850;28;20037;-77
2021/03/22 07:21:49;;;;;;;12.13;0.93;;;5.90;90.00;;;;;;5065685;28;20513;-76
2021/03/22 07:24:39;;;;;;;8.77;1.55;;;6.00;90.10;;;;;;5042885;28;20126;-76
2021/03/22 07:27:34;;;;;;;10.13;0.68;;;6.00;90.10;;;;;;5064410;28;20040;-77
2021/03/22 07:30:25;;;;;;;4.82;0.40;;;6.10;90.10;;;;;;5045744;28;20114;-77
2021/03/22 07:33:01;;;;;;;5.55;0.40;;;6.10;90.10;;;;;;5060306;28;20040;-78
2021/03/22 07:35:50;;;;;;;6.20;1.98;;;6.10;90.10;;;;;;5043588;28;20040;-80
2021/03/22 07:38:41;;;;;;;8.30;1.42;;;6.10;90.00;;;;;;5043042;28;20605;-77
2021/03/22 07:41:37;;;;;;;6.93;1.30;;;6.10;90.10;;;;;;5057778;28;20715;-77
2021/03/22 07:44:40;;;;;;;6.30;1.60;;;6.10;90.00;;;;;;5019290;28;20045;-76
2021/03/22 07:47:17;;;;;;;11.00;0.95;;;6.20;89.10;;;;;;5062549;28;20044;-76
2021/03/22 07:49:46;;;;;;;5.03;0.40;;;6.20;89.70;;;;;;5050627;28;20436;-77
2021/03/22 07:52:33;;;;;;;4.18;1.10;;;6.20;89.20;;;;;;5066273;28;20426;-78
2021/03/22 07:55:23;;;;;;;10.13;0.65;;;6.30;87.90;;;;;;5065246;28;20033;-78
2021/03/22 07:58:07;;;;;;;7.72;0.45;;;6.30;88.90;;;;;;5068865;28;20064;-77
2021/03/22 08:00:33;;;;;;;;;;;6.30;89.20;;;;;;5069841;28;20040;-77
2021/03/22 08:03:41;;;;;;;4.65;0.95;;;6.30;89.30;;;;;;5070225;28;19926;-77
2021/03/22 08:06:09;;;;;;;7.35;0.80;;;6.30;89.90;;;;;;5040463;28;20601;-78
2021/03/22 08:08:58;;;;;;;6.45;1.45;;;6.40;90.00;;;;;;5060755;28;20037;-78
2021/03/22 08:11:54;;;;;;;8.13;0.70;;;6.50;89.80;;;;;;5059653;28;20040;-77
2021/03/22 08:14:33;;;;;;;8.63;0.88;;;6.60;89.80;;;;;;5061650;28;20064;-77
2021/03/22 08:17:15;;;;;;;9.40;0.40;;;6.70;89.60;;;;;;5065641;28;20080;-78
2021/03/22 08:19:47;;;;;;;2.53;0.30;;;6.70;88.80;;;;;;5064076;28;20131;-78
2021/03/22 08:22:32;;;;;;;9.30;0.57;;;6.80;88.30;;;;;;5066710;28;20041;-78
2021/03/22 08:25:16;;;;;;;;;;;6.90;87.00;;;;;;5071138;28;20676;-79
2021/03/22 08:27:52;;;;;;;9.07;1.02;;;7.00;84.60;;;;;;5053044;28;19928;-78
2021/03/22 08:30:23;;;;;;;8.63;0.80;;;7.10;87.30;;;;;;5063814;28;20044;-77
2021/03/22 08:33:23;;;;;;;7.28;0.88;;;7.00;87.80;;;;;;5055067;28;20040;-77
2021/03/22 08:35:55;;;;;;;6.35;1.17;;;7.10;88.20;;;;;;5060853;28;20037;-78
2021/03/22 08:38:50;;;;;;;4.00;0.50;;;7.10;88.90;;;;;;5066373;28;20089;-77
2021/03/22 08:41:32;;;;;;;4.95;1.05;;;7.10;88.80;;;;;;5055606;28;20118;-77
2021/03/22 08:44:28;;;;;;;6.55;0.75;;;7.20;88.80;;;;;;5067281;28;20071;-77
2021/03/22 08:47:05;;;;;;;4.40;0.47;;;7.20;89.20;;;;;;5065019;28;20036;-77
2021/03/22 08:49:59;;;;;;;6.28;0.65;;;7.30;89.10;;;;;;5069496;28;20078;-76
2021/03/22 08:52:27;;;;;;;3.60;0.43;;;7.40;87.20;;;;;;5043562;28;20052;-77
2021/03/22 08:55:23;;;;;;;3.65;0.40;;;7.40;88.20;;;;;;5066082;28;20048;-77
2021/03/22 08:58:05;;;;;;;10.32;0.75;;;7.50;88.60;;;;;;5055885;28;20052;-77
2021/03/22 09:00:45;;;;;;;6.88;0.80;;;7.60;89.10;;;;;;5046070;28;20505;-77
2021/03/22 09:03:15;;;;;;;7.30;0.43;;;7.80;87.90;;;;;;5044718;28;20075;-77
2021/03/22 09:06:06;;;;;;;11.88;0.70;;;7.90;87.70;;;;;;5060197;28;20116;-78
2021/03/22 09:08:35;;;;;;;5.68;1.10;;;8.00;87.50;;;;;;5044669;28;20052;-78
2021/03/22 09:11:26;;;;;;;7.88;0.50;;;8.10;88.40;;;;;;5064885;28;20046;-76
2021/03/22 09:14:06;;;;;;;4.95;1.20;;;8.30;87.40;;;;;;5061285;28;20059;-78
2021/03/22 09:16:43;;;;;;;4.65;1.13;;;8.40;86.30;;;;;;5050388;28;20089;-77
2021/03/22 09:19:09;;;;;;;7.90;0.35;;;8.50;87.50;;;;;;5064620;28;20044;-77
2021/03/22 09:21:45;;;;;;;6.32;0.95;;;8.60;87.90;;;;;;5064291;28;20102;-77
2021/03/22 09:24:40;;;;;;;6.47;0.60;;;8.70;87.50;;;;;;5068799;28;20376;-78
2021/03/22 09:27:15;;;;;;;9.40;0.95;;;8.80;85.80;;;;;;5059399;28;20072;-78
2021/03/22 09:29:45;;;;;;;8.93;0.43;;;8.80;85.20;;;;;;5061981;28;20111;-78
2021/03/22 09:32:27;;;;;;;3.88;0.30;;;8.70;84.90;;;;;;5062891;28;20348;-77
2021/03/22 09:34:57;;;;;;;8.52;0.77;;;8.70;83.90;;;;;;5063420;28;20036;-77
2021/03/22 09:37:43;;;;;;;6.47;0.32;;;8.60;86.40;;;;;;5045862;28;20064;-78
2021/03/22 09:40:30;;;;;;;12.25;0.60;;;8.60;86.40;;;;;;5049696;28;20421;-77
2021/03/22 09:43:16;;;;;;;2.47;0.43;;;8.70;84.80;;;;;;5055508;28;20044;-78
2021/03/22 09:45:51;;;;;;;6.30;0.38;;;8.70;85.70;;;;;;5062325;28;20455;-78
2021/03/22 09:48:18;;;;;;;5.03;0.70;;;8.70;83.40;;;;;;5062358;28;20045;-78
2021/03/22 09:50:47;;;;;;;6.22;1.75;;;8.80;85.70;;;;;;5060388;28;20041;-79
2021/03/22 09:53:24;;;;;;;6.50;1.48;;;8.70;85.00;;;;;;5062395;28;20526;-78
2021/03/22 09:55:49;;;;;;;7.10;0.50;;;8.70;84.70;;;;;;5051222;28;20123;-78
2021/03/22 09:58:46;;;;;;;3.00;0.20;;;8.80;84.20;;;;;;5065780;28;20151;-78
2021/03/22 10:01:35;;;;;;;6.75;0.40;;;8.80;82.50;;;;;;5045050;28;20051;-77
2021/03/22 10:04:19;;;;;;;5.35;0.50;;;8.90;85.20;;;;;;5058114;28;20041;-77
2021/03/22 10:07:19;;;;;;;2.13;0.20;;;8.80;84.40;;;;;;5060633;28;20051;-78
2021/03/22 10:10:00;;;;;;;2.25;0.65;;;8.80;79.80;;;;;;5062093;28;20056;-77
2021/03/22 10:12:35;;;;;;;1.95;0.10;;;8.80;79.80;;;;;;5064758;28;20135;-78
2021/03/22 10:15:12;;;;;;;2.50;0.20;;;8.80;81.20;;;;;;5061533;28;20045;-78
2021/03/22 10:17:47;;;;;;;3.92;0.68;;;8.70;81.80;;;;;;5055538;28;20040;-78
2021/03/22 10:20:37;;;;;;;3.38;0.43;;;8.70;83.20;;;;;;5067061;28;20040;-77
2021/03/22 10:23:15;;;;;;;1.70;0.20;;;8.70;83.70;;;;;;5042784;28;20047;-78
2021/03/22 10:25:43;;;;;;;1.40;0.10;;;8.80;83.60;;;;;;5058698;28;20033;-78
2021/03/22 10:28:21;;;;;;;5.13;0.22;;;8.90;84.00;;;;;;5012001;28;20040;-77
2021/03/22 10:31:09;;;;;;;4.10;0.55;;;8.90;83.60;;;;;;5055498;28;20041;-77
2021/03/22 10:33:35;;;;;;;3.67;0.20;;;8.90;81.60;;;;;;5058476;28;20040;-78
2021/03/22 10:36:04;;;;;;;2.78;0.20;;;8.90;83.60;;;;;;5044728;28;20136;-78
2021/03/22 10:38:36;;;;;;;1.73;0.10;;;8.90;82.60;;;;;;5066837;28;20048;-78
2021/03/22 10:41:04;;;;;;;0.60;0.20;;;8.90;82.40;;;;;;5065518;28;20040;-78
2021/03/22 10:43:32;;;;;;;2.63;0.17;;;8.90;81.90;;;;;;5062483;28;20044;-77
2021/03/22 10:46:20;;;;;;;2.80;0.10;;;8.90;81.90;;;;;;5058892;28;20044;-77
2021/03/22 10:49:01;;;;;;;2.45;0.10;;;8.80;82.50;;;;;;5062460;28;20144;-78
2021/03/22 10:51:39;;;;;;;2.10;0.30;;;9.00;80.60;;;;;;5054158;28;20133;-77
2021/03/22 10:54:10;;;;;;;2.92;0.10;;;9.10;80.50;;;;;;5049802;28;20056;-77
2021/03/22 10:56:57;;;;;;;2.67;0.20;;;9.10;81.10;;;;;;5041614;28;20045;-78
2021/03/22 10:59:30;;;;;;;6.72;0.15;;;9.10;78.40;;;;;;5062516;28;20048;-77
2021/03/22 11:01:59;;;;;;;3.80;0.45;;;9.20;81.80;;;;;;5058722;28;20493;-77
2021/03/22 11:04:32;;;;;;;4.72;0.20;;;9.20;81.70;;;;;;5064057;28;20130;-77
2021/03/22 11:06:59;;;;;;;2.33;0.20;;;9.30;82.10;;;;;;5045283;28;20120;-78
2021/03/22 11:09:29;;;;;;;3.80;0.20;;;9.40;81.70;;;;;;5065527;28;20045;-78
2021/03/22 11:11:57;;;;;;;4.45;0.40;;;9.50;81.60;;;;;;5064923;28;20132;-78
2021/03/22 11:14:28;;;;;;;4.70;1.10;;;9.50;81.10;;;;;;5043511;28;20051;-78
2021/03/22 11:16:54;;;;;;;5.07;0.40;;;9.30;80.70;;;;;;5066792;28;20040;-77
2021/03/22 11:19:28;;;;;;;5.80;0.55;;;9.20;81.40;;;;;;5022564;28;20098;-78
2021/03/22 11:21:57;;;;;;;2.90;0.68;;;9.20;82.50;;;;;;5060294;28;20041;-77
2021/03/22 11:24:56;;;;;;;4.28;0.25;;;9.20;83.60;;;;;;5063694;28;20037;-77
2021/03/22 11:27:25;;;;;;;2.25;0.20;;;9.20;79.20;;;;;;5014107;28;20052;-78
2021/03/22 11:30:01;;;;;;;1.85;0.10;;;9.30;83.30;;;;;;5063962;28;20377;-78
2021/03/22 11:32:30;;;;;;;1.92;0.10;;;9.40;82.70;;;;;;5066841;28;20033;-77
2021/03/22 11:34:56;;;;;;;3.05;0.20;;;9.50;83.40;;;;;;5064294;28;20040;-77
2021/03/22 11:37:29;;;;;;;3.22;0.30;;;9.40;82.90;;;;;;5069220;28;20426;-77
2021/03/22 11:40:17;;;;;;;6.37;0.40;;;9.60;82.10;;;;;;5071507;28;20066;-78
2021/03/22 11:43:21;;;;;;;3.67;0.28;;;9.60;81.20;;;;;;5043971;28;20297;-77
2021/03/22 11:45:47;;;;;;;3.90;0.20;;;9.70;80.00;;;;;;5062478;28;20079;-77
2021/03/22 11:48:22;;;;;;;3.55;0.28;;;9.70;83.60;;;;;;5045690;28;20072;-77
2021/03/22 11:51:01;;;;;;;4.80;0.30;;;9.80;83.10;;;;;;5067089;28;20441;-77
2021/03/22 11:53:28;;;;;;;3.47;0.80;;;9.80;82.80;;;;;;5059742;28;20139;-77
2021/03/22 11:55:57;;;;;;;2.08;0.20;;;9.90;83.00;;;;;;5065565;28;20051;-77
2021/03/22 11:58:29;;;;;;;3.60;0.30;;;9.90;83.70;;;;;;5061925;28;20427;-77
2021/03/22 12:01:10;;;;;;;3.15;0.40;;;9.90;83.30;;;;;;5066931;28;20128;-77
2021/03/22 12:03:36;;;;;;;4.05;0.20;;;10.00;82.90;;;;;;5064680;28;20361;-77
2021/03/22 12:06:06;;;;;;;6.63;0.57;;;10.00;82.00;;;;;;5067624;28;20044;-77
2021/03/22 12:08:44;;;;;;;1.52;0.73;;;10.00;82.70;;;;;;5067017;28;20523;-77
2021/03/22 12:11:19;;;;;;;0.40;0.10;;;10.00;83.10;;;;;;5068896;28;20044;-77
2021/03/22 12:13:52;;;;;;;2.72;0.10;;;10.10;79.80;;;;;;5060910;28;20080;-77
2021/03/22 12:16:21;;;;;;;2.05;0.55;;;10.20;80.90;;;;;;5062074;28;20048;-77
2021/03/22 12:18:49;;;;;;;2.28;0.10;;;10.20;78.90;;;;;;5043529;28;20044;-77
2021/03/22 12:21:15;;;;;;;1.10;0.20;;;10.10;79.30;;;;;;5045710;28;20051;-77
2021/03/22 12:23:41;;;;;;;2.30;0.20;;;10.00;79.80;;;;;;5064576;28;20449;-77
2021/03/22 12:26:10;;;;;;;4.10;0.30;;;9.80;79.00;;;;;;5064559;28;20380;-77
2021/03/22 12:28:53;;;;;;;9.68;0.98;;;9.60;81.20;;;;;;5067177;28;20416;-77
2021/03/22 12:31:25;;;;;;;7.72;0.68;;;9.60;81.40;;;;;;5046542;28;20055;-77
2021/03/22 12:33:51;;;;;;;3.60;0.43;;;9.60;81.70;;;;;;5061083;28;20044;-77
2021/03/22 12:36:17;;;;;;;9.50;1.67;;;9.60;82.30;;;;;;5061918;28;20386;-78
2021/03/22 12:38:43;;;;;;;3.30;0.15;;;9.70;81.80;;;;;;5063283;28;20051;-77
2021/03/22 12:41:15;;;;;;;2.30;0.10;;;9.70;80.80;;;;;;5056971;28;20429;-77
2021/03/22 12:43:41;;;;;;;1.05;0.10;;;9.80;80.40;;;;;;5065672;28;20036;-77
2021/03/22 12:46:07;;;;;;;0.77;0.50;;;9.80;78.90;;;;;;5060074;28;20044;-78
2021/03/22 12:48:33;;;;;;;3.53;0.30;;;9.80;78.40;;;;;;5060969;28;20032;-77
2021/03/22 12:50:59;;;;;;;2.08;0.20;;;9.80;78.50;;;;;;5054162;28;20120;-77
2021/03/22 12:53:24;;;;;;;1.15;0.10;;;9.70;78.60;;;;;;5016611;28;20037;-77
2021/03/22 12:55:50;;;;;;;2.10;0.05;;;9.70;78.00;;;;;;5063383;28;20040;-79
2021/03/22 12:58:22;;;;;;;3.08;0.10;;;9.60;79.20;;;;;;5011097;28;834802;-79
2021/03/22 13:00:49;;;;;;;2.42;0.13;;;9.50;79.20;;;;;;5034137;28;20064;-77
2021/03/22 13:03:23;;;;;;;2.67;0.10;;;9.60;79.20;;;;;;5060344;28;20386;-77
2021/03/22 13:05:55;;;;;;;3.08;0.77;;;9.50;79.30;;;;;;5037292;28;20044;-78
2021/03/22 13:08:22;;;;;;;6.15;1.02;;;9.50;79.90;;;;;;5042367;28;20069;-77
2021/03/22 13:10:48;;;;;;;2.85;0.20;;;9.50;81.00;;;;;;5032530;28;20115;-77
2021/03/22 13:13:14;;;;;;;2.70;0.20;;;9.50;81.30;;;;;;5033223;28;20148;-77
2021/03/22 13:15:43;;;;;;;2.85;0.60;;;9.40;80.50;;;;;;5038976;28;20441;-77
2021/03/22 13:18:31;;;;;;;2.72;0.10;;;9.30;79.70;;;;;;5044878;28;20345;-77
2021/03/22 13:21:08;;;;;;;1.75;0.10;;;9.30;79.70;;;;;;5040805;28;20048;-77
2021/03/22 13:23:34;;;;;;;2.22;0.10;;;9.20;80.40;;;;;;5055865;28;20091;-77
2021/03/22 13:26:00;;;;;;;2.95;0.88;;;9.20;81.10;;;;;;5044723;28;20048;-77
2021/03/22 13:28:29;;;;;;;4.40;0.20;;;9.20;82.00;;;;;;5063236;28;20049;-76
2021/03/22 13:30:56;;;;;;;1.75;0.10;;;9.20;82.00;;;;;;5044364;28;20041;-76